sensor_id;sensor_type;location;lat;lon;timestamp;P1;durP1;ratioP1;P2;durP2;ratioP2
12181;SDS011;6154;51.550;12.138;2023-08-06T00:01:27;5.93;;;2.50;;
12181;SDS011;6154;51.550;12.138;2023-08-06T00:03:55;2.58;;;2.00;;
12181;SDS011;6154;51.550;12.138;2023-08-06T00:06:23;3.20;;;2.25;;
12181;SDS011;6154;51.550;12.138;2023-08-06T00:08:51;4.35;;;2.22;;
12181;SDS011;6154;51.550;12.138;2023-08-06T00:11:20;3.03;;;2.40;;
12181;SDS011;6154;51.550;12.138;2023-08-06T00:13:49;5.12;;;2.87;;
12181;SDS011;6154;51.550;12.138;2023-08-06T00:16:17;4.07;;;2.12;;
12181;SDS011;6154;51.550;12.138;2023-08-06T00:18:46;3.10;;;2.05;;
12181;SDS011;6154;51.550;12.138;2023-08-06T00:21:14;3.78;;;2.30;;
12181;SDS011;6154;51.550;12.138;2023-08-06T00:23:42;3.45;;;1.90;;
12181;SDS011;6154;51.550;12.138;2023-08-06T00:26:10;3.78;;;2.17;;
12181;SDS011;6154;51.550;12.138;2023-08-06T00:28:38;3.08;;;2.15;;
12181;SDS011;6154;51.550;12.138;2023-08-06T00:31:08;3.35;;;2.20;;
12181;SDS011;6154;51.550;12.138;2023-08-06T00:33:36;6.03;;;2.25;;
12181;SDS011;6154;51.550;12.138;2023-08-06T00:36:05;2.67;;;1.90;;
12181;SDS011;6154;51.550;12.138;2023-08-06T00:38:34;1.98;;;1.83;;
12181;SDS011;6154;51.550;12.138;2023-08-06T00:41:02;3.17;;;2.28;;
12181;SDS011;6154;51.550;12.138;2023-08-06T00:43:30;3.22;;;2.25;;
12181;SDS011;6154;51.550;12.138;2023-08-06T00:45:58;3.65;;;2.22;;
12181;SDS011;6154;51.550;12.138;2023-08-06T00:48:30;2.83;;;2.03;;
12181;SDS011;6154;51.550;12.138;2023-08-06T00:50:59;5.25;;;2.60;;
12181;SDS011;6154;51.550;12.138;2023-08-06T00:53:28;2.15;;;1.95;;
12181;SDS011;6154;51.550;12.138;2023-08-06T00:55:56;4.40;;;2.50;;
12181;SDS011;6154;51.550;12.138;2023-08-06T00:58:25;2.97;;;2.30;;
12181;SDS011;6154;51.550;12.138;2023-08-06T01:00:54;3.58;;;2.87;;
12181;SDS011;6154;51.550;12.138;2023-08-06T01:03:23;2.72;;;2.22;;
12181;SDS011;6154;51.550;12.138;2023-08-06T01:05:52;4.75;;;2.53;;
12181;SDS011;6154;51.550;12.138;2023-08-06T01:08:25;5.45;;;2.90;;
12181;SDS011;6154;51.550;12.138;2023-08-06T01:11:05;3.58;;;2.33;;
12181;SDS011;6154;51.550;12.138;2023-08-06T01:13:42;3.25;;;2.05;;
12181;SDS011;6154;51.550;12.138;2023-08-06T01:16:14;3.83;;;2.53;;
12181;SDS011;6154;51.550;12.138;2023-08-06T01:18:46;4.10;;;2.67;;
12181;SDS011;6154;51.550;12.138;2023-08-06T01:21:17;4.35;;;2.25;;
12181;SDS011;6154;51.550;12.138;2023-08-06T01:23:46;4.50;;;2.12;;
12181;SDS011;6154;51.550;12.138;2023-08-06T01:26:18;3.05;;;2.60;;
12181;SDS011;6154;51.550;12.138;2023-08-06T01:28:53;3.30;;;2.30;;
12181;SDS011;6154;51.550;12.138;2023-08-06T01:31:27;3.53;;;2.25;;
12181;SDS011;6154;51.550;12.138;2023-08-06T01:33:59;3.12;;;2.20;;
12181;SDS011;6154;51.550;12.138;2023-08-06T01:36:32;4.55;;;2.35;;
12181;SDS011;6154;51.550;12.138;2023-08-06T01:39:00;5.10;;;2.80;;
12181;SDS011;6154;51.550;12.138;2023-08-06T01:41:28;3.10;;;2.55;;
12181;SDS011;6154;51.550;12.138;2023-08-06T01:43:56;3.70;;;2.60;;
12181;SDS011;6154;51.550;12.138;2023-08-06T01:46:25;3.90;;;2.53;;
12181;SDS011;6154;51.550;12.138;2023-08-06T01:48:53;3.72;;;2.33;;
12181;SDS011;6154;51.550;12.138;2023-08-06T01:51:21;6.12;;;2.42;;
12181;SDS011;6154;51.550;12.138;2023-08-06T01:53:51;3.92;;;2.72;;
12181;SDS011;6154;51.550;12.138;2023-08-06T01:56:20;4.35;;;2.60;;
12181;SDS011;6154;51.550;12.138;2023-08-06T01:58:48;3.25;;;2.20;;
12181;SDS011;6154;51.550;12.138;2023-08-06T02:01:16;2.62;;;2.33;;
12181;SDS011;6154;51.550;12.138;2023-08-06T02:03:45;3.25;;;2.55;;
12181;SDS011;6154;51.550;12.138;2023-08-06T02:06:13;3.05;;;1.90;;
12181;SDS011;6154;51.550;12.138;2023-08-06T02:08:41;3.20;;;2.30;;
12181;SDS011;6154;51.550;12.138;2023-08-06T02:11:11;2.40;;;1.87;;
12181;SDS011;6154;51.550;12.138;2023-08-06T02:13:39;3.08;;;2.12;;
12181;SDS011;6154;51.550;12.138;2023-08-06T02:16:07;4.28;;;2.33;;
12181;SDS011;6154;51.550;12.138;2023-08-06T02:18:36;4.28;;;2.37;;
12181;SDS011;6154;51.550;12.138;2023-08-06T02:21:04;4.87;;;2.62;;
12181;SDS011;6154;51.550;12.138;2023-08-06T02:23:32;3.83;;;2.50;;
12181;SDS011;6154;51.550;12.138;2023-08-06T02:26:02;4.00;;;2.72;;
12181;SDS011;6154;51.550;12.138;2023-08-06T02:28:32;3.00;;;2.42;;
12181;SDS011;6154;51.550;12.138;2023-08-06T02:31:00;2.75;;;2.30;;
12181;SDS011;6154;51.550;12.138;2023-08-06T02:33:29;4.97;;;3.20;;
12181;SDS011;6154;51.550;12.138;2023-08-06T02:36:00;4.07;;;2.92;;
12181;SDS011;6154;51.550;12.138;2023-08-06T02:38:30;4.55;;;2.72;;
12181;SDS011;6154;51.550;12.138;2023-08-06T02:40:59;4.03;;;2.50;;
12181;SDS011;6154;51.550;12.138;2023-08-06T02:43:31;3.00;;;2.70;;
12181;SDS011;6154;51.550;12.138;2023-08-06T02:46:00;3.35;;;2.60;;
12181;SDS011;6154;51.550;12.138;2023-08-06T02:48:28;2.90;;;2.67;;
12181;SDS011;6154;51.550;12.138;2023-08-06T02:50:57;4.90;;;2.60;;
12181;SDS011;6154;51.550;12.138;2023-08-06T02:53:26;5.00;;;2.90;;
12181;SDS011;6154;51.550;12.138;2023-08-06T02:55:55;3.45;;;2.67;;
12181;SDS011;6154;51.550;12.138;2023-08-06T02:58:24;2.95;;;2.40;;
12181;SDS011;6154;51.550;12.138;2023-08-06T03:01:01;4.62;;;2.97;;
12181;SDS011;6154;51.550;12.138;2023-08-06T03:03:32;4.20;;;2.85;;
12181;SDS011;6154;51.550;12.138;2023-08-06T03:06:00;3.00;;;2.70;;
12181;SDS011;6154;51.550;12.138;2023-08-06T03:08:30;4.93;;;3.12;;
12181;SDS011;6154;51.550;12.138;2023-08-06T03:10:58;3.03;;;2.45;;
12181;SDS011;6154;51.550;12.138;2023-08-06T03:13:26;4.55;;;3.05;;
12181;SDS011;6154;51.550;12.138;2023-08-06T03:15:55;4.95;;;2.87;;
12181;SDS011;6154;51.550;12.138;2023-08-06T03:18:26;6.62;;;2.70;;
12181;SDS011;6154;51.550;12.138;2023-08-06T03:20:55;2.72;;;2.53;;
12181;SDS011;6154;51.550;12.138;2023-08-06T03:23:24;6.25;;;3.28;;
12181;SDS011;6154;51.550;12.138;2023-08-06T03:25:52;7.40;;;3.15;;
12181;SDS011;6154;51.550;12.138;2023-08-06T03:28:21;3.22;;;2.92;;
12181;SDS011;6154;51.550;12.138;2023-08-06T03:30:58;5.00;;;3.33;;
12181;SDS011;6154;51.550;12.138;2023-08-06T03:33:30;6.70;;;2.85;;
12181;SDS011;6154;51.550;12.138;2023-08-06T03:35:59;3.97;;;3.00;;
12181;SDS011;6154;51.550;12.138;2023-08-06T03:38:28;4.07;;;2.92;;
12181;SDS011;6154;51.550;12.138;2023-08-06T03:40:56;4.28;;;2.55;;
12181;SDS011;6154;51.550;12.138;2023-08-06T03:43:24;2.95;;;2.55;;
12181;SDS011;6154;51.550;12.138;2023-08-06T03:45:53;3.08;;;2.67;;
12181;SDS011;6154;51.550;12.138;2023-08-06T03:48:21;5.03;;;2.42;;
12181;SDS011;6154;51.550;12.138;2023-08-06T03:50:51;4.57;;;2.87;;
12181;SDS011;6154;51.550;12.138;2023-08-06T03:53:19;4.90;;;3.00;;
12181;SDS011;6154;51.550;12.138;2023-08-06T03:55:47;4.50;;;2.70;;
12181;SDS011;6154;51.550;12.138;2023-08-06T03:58:15;3.35;;;3.05;;
12181;SDS011;6154;51.550;12.138;2023-08-06T04:00:44;3.97;;;2.80;;
12181;SDS011;6154;51.550;12.138;2023-08-06T04:03:12;2.80;;;2.55;;
12181;SDS011;6154;51.550;12.138;2023-08-06T04:05:41;3.87;;;2.70;;
12181;SDS011;6154;51.550;12.138;2023-08-06T04:08:10;4.82;;;3.37;;
12181;SDS011;6154;51.550;12.138;2023-08-06T04:10:39;4.25;;;3.22;;
12181;SDS011;6154;51.550;12.138;2023-08-06T04:13:07;3.42;;;3.05;;
12181;SDS011;6154;51.550;12.138;2023-08-06T04:15:35;7.28;;;3.55;;
12181;SDS011;6154;51.550;12.138;2023-08-06T04:18:04;3.65;;;2.97;;
12181;SDS011;6154;51.550;12.138;2023-08-06T04:20:33;3.50;;;2.60;;
12181;SDS011;6154;51.550;12.138;2023-08-06T04:23:05;3.80;;;3.15;;
12181;SDS011;6154;51.550;12.138;2023-08-06T04:25:35;4.43;;;3.28;;
12181;SDS011;6154;51.550;12.138;2023-08-06T04:28:04;2.78;;;2.40;;
12181;SDS011;6154;51.550;12.138;2023-08-06T04:30:33;3.65;;;2.87;;
12181;SDS011;6154;51.550;12.138;2023-08-06T04:33:02;5.28;;;3.10;;
12181;SDS011;6154;51.550;12.138;2023-08-06T04:35:31;4.97;;;3.22;;
12181;SDS011;6154;51.550;12.138;2023-08-06T04:38:00;5.57;;;3.33;;
12181;SDS011;6154;51.550;12.138;2023-08-06T04:40:28;3.10;;;2.47;;
12181;SDS011;6154;51.550;12.138;2023-08-06T04:42:58;5.03;;;3.17;;
12181;SDS011;6154;51.550;12.138;2023-08-06T04:45:27;3.50;;;2.78;;
12181;SDS011;6154;51.550;12.138;2023-08-06T04:47:55;5.18;;;3.40;;
12181;SDS011;6154;51.550;12.138;2023-08-06T04:50:23;6.03;;;3.95;;
12181;SDS011;6154;51.550;12.138;2023-08-06T04:52:52;4.62;;;3.70;;
12181;SDS011;6154;51.550;12.138;2023-08-06T04:55:20;5.78;;;3.42;;
12181;SDS011;6154;51.550;12.138;2023-08-06T04:57:48;7.62;;;3.85;;
12181;SDS011;6154;51.550;12.138;2023-08-06T05:00:17;5.50;;;3.35;;
12181;SDS011;6154;51.550;12.138;2023-08-06T05:02:46;4.80;;;3.35;;
12181;SDS011;6154;51.550;12.138;2023-08-06T05:05:14;5.43;;;3.10;;
12181;SDS011;6154;51.550;12.138;2023-08-06T05:07:42;4.10;;;3.40;;
12181;SDS011;6154;51.550;12.138;2023-08-06T05:10:11;3.87;;;3.12;;
12181;SDS011;6154;51.550;12.138;2023-08-06T05:12:39;5.18;;;3.55;;
12181;SDS011;6154;51.550;12.138;2023-08-06T05:15:07;4.93;;;4.00;;
12181;SDS011;6154;51.550;12.138;2023-08-06T05:17:38;3.70;;;2.92;;
12181;SDS011;6154;51.550;12.138;2023-08-06T05:20:06;2.97;;;2.70;;
12181;SDS011;6154;51.550;12.138;2023-08-06T05:22:34;7.72;;;3.40;;
12181;SDS011;6154;51.550;12.138;2023-08-06T05:25:03;3.95;;;2.75;;
12181;SDS011;6154;51.550;12.138;2023-08-06T05:27:33;5.22;;;2.42;;
12181;SDS011;6154;51.550;12.138;2023-08-06T05:30:01;3.55;;;2.80;;
12181;SDS011;6154;51.550;12.138;2023-08-06T05:32:30;6.45;;;2.60;;
12181;SDS011;6154;51.550;12.138;2023-08-06T05:34:59;4.55;;;2.70;;
12181;SDS011;6154;51.550;12.138;2023-08-06T05:37:27;6.47;;;2.87;;
12181;SDS011;6154;51.550;12.138;2023-08-06T05:39:55;3.78;;;2.90;;
12181;SDS011;6154;51.550;12.138;2023-08-06T05:42:23;2.58;;;2.37;;
12181;SDS011;6154;51.550;12.138;2023-08-06T05:44:52;1.95;;;1.77;;
12181;SDS011;6154;51.550;12.138;2023-08-06T05:47:20;1.95;;;1.17;;
12181;SDS011;6154;51.550;12.138;2023-08-06T05:49:48;5.57;;;1.35;;
12181;SDS011;6154;51.550;12.138;2023-08-06T05:52:18;1.15;;;1.05;;
12181;SDS011;6154;51.550;12.138;2023-08-06T05:54:46;1.85;;;1.05;;
12181;SDS011;6154;51.550;12.138;2023-08-06T05:57:14;0.98;;;0.80;;
12181;SDS011;6154;51.550;12.138;2023-08-06T05:59:42;1.55;;;1.12;;
12181;SDS011;6154;51.550;12.138;2023-08-06T06:02:11;1.00;;;0.90;;
12181;SDS011;6154;51.550;12.138;2023-08-06T06:04:40;0.90;;;0.90;;
12181;SDS011;6154;51.550;12.138;2023-08-06T06:07:08;2.33;;;0.70;;
12181;SDS011;6154;51.550;12.138;2023-08-06T06:09:38;1.35;;;0.80;;
12181;SDS011;6154;51.550;12.138;2023-08-06T06:12:07;0.82;;;0.70;;
12181;SDS011;6154;51.550;12.138;2023-08-06T06:14:35;1.05;;;0.95;;
12181;SDS011;6154;51.550;12.138;2023-08-06T06:17:03;2.62;;;1.00;;
12181;SDS011;6154;51.550;12.138;2023-08-06T06:19:32;1.95;;;0.80;;
12181;SDS011;6154;51.550;12.138;2023-08-06T06:22:00;2.25;;;0.68;;
12181;SDS011;6154;51.550;12.138;2023-08-06T06:24:28;1.73;;;1.00;;
12181;SDS011;6154;51.550;12.138;2023-08-06T06:26:58;1.15;;;0.80;;
12181;SDS011;6154;51.550;12.138;2023-08-06T06:29:26;0.73;;;0.73;;
12181;SDS011;6154;51.550;12.138;2023-08-06T06:31:55;1.33;;;0.95;;
12181;SDS011;6154;51.550;12.138;2023-08-06T06:34:23;0.93;;;0.85;;
12181;SDS011;6154;51.550;12.138;2023-08-06T06:36:51;0.95;;;0.73;;
12181;SDS011;6154;51.550;12.138;2023-08-06T06:39:20;1.62;;;0.80;;
12181;SDS011;6154;51.550;12.138;2023-08-06T06:41:49;0.85;;;0.70;;
12181;SDS011;6154;51.550;12.138;2023-08-06T06:44:19;1.58;;;1.00;;
12181;SDS011;6154;51.550;12.138;2023-08-06T06:46:47;0.80;;;0.75;;
12181;SDS011;6154;51.550;12.138;2023-08-06T06:49:16;0.73;;;0.70;;
12181;SDS011;6154;51.550;12.138;2023-08-06T06:51:44;1.35;;;0.90;;
12181;SDS011;6154;51.550;12.138;2023-08-06T06:54:12;0.90;;;0.75;;
12181;SDS011;6154;51.550;12.138;2023-08-06T06:56:41;0.70;;;0.55;;
12181;SDS011;6154;51.550;12.138;2023-08-06T06:59:09;0.93;;;0.60;;
12181;SDS011;6154;51.550;12.138;2023-08-06T07:01:39;1.90;;;0.73;;
12181;SDS011;6154;51.550;12.138;2023-08-06T07:04:07;0.95;;;0.62;;
12181;SDS011;6154;51.550;12.138;2023-08-06T07:06:35;0.98;;;0.73;;
12181;SDS011;6154;51.550;12.138;2023-08-06T07:09:03;0.93;;;0.77;;
12181;SDS011;6154;51.550;12.138;2023-08-06T07:11:32;2.35;;;0.98;;
12181;SDS011;6154;51.550;12.138;2023-08-06T07:14:01;0.70;;;0.70;;
12181;SDS011;6154;51.550;12.138;2023-08-06T07:16:29;1.02;;;0.73;;
12181;SDS011;6154;51.550;12.138;2023-08-06T07:18:59;0.60;;;0.60;;
12181;SDS011;6154;51.550;12.138;2023-08-06T07:21:27;0.95;;;0.95;;
12181;SDS011;6154;51.550;12.138;2023-08-06T07:23:55;1.35;;;0.82;;
12181;SDS011;6154;51.550;12.138;2023-08-06T07:26:24;1.05;;;0.90;;
12181;SDS011;6154;51.550;12.138;2023-08-06T07:28:52;1.08;;;0.95;;
12181;SDS011;6154;51.550;12.138;2023-08-06T07:31:20;0.80;;;0.80;;
12181;SDS011;6154;51.550;12.138;2023-08-06T07:33:48;0.98;;;0.98;;
12181;SDS011;6154;51.550;12.138;2023-08-06T07:36:18;1.00;;;0.68;;
12181;SDS011;6154;51.550;12.138;2023-08-06T07:38:46;1.00;;;0.90;;
12181;SDS011;6154;51.550;12.138;2023-08-06T07:41:15;1.00;;;0.90;;
12181;SDS011;6154;51.550;12.138;2023-08-06T07:43:43;2.15;;;0.65;;
12181;SDS011;6154;51.550;12.138;2023-08-06T07:46:11;2.80;;;1.00;;
12181;SDS011;6154;51.550;12.138;2023-08-06T07:48:40;1.12;;;1.02;;
12181;SDS011;6154;51.550;12.138;2023-08-06T07:51:08;0.80;;;0.80;;
12181;SDS011;6154;51.550;12.138;2023-08-06T07:53:38;0.70;;;0.70;;
12181;SDS011;6154;51.550;12.138;2023-08-06T07:56:06;1.08;;;0.73;;
12181;SDS011;6154;51.550;12.138;2023-08-06T07:58:35;1.75;;;0.80;;
12181;SDS011;6154;51.550;12.138;2023-08-06T08:01:03;1.05;;;0.93;;
12181;SDS011;6154;51.550;12.138;2023-08-06T08:03:32;0.98;;;0.77;;
12181;SDS011;6154;51.550;12.138;2023-08-06T08:06:00;0.90;;;0.80;;
12181;SDS011;6154;51.550;12.138;2023-08-06T08:08:28;0.73;;;0.73;;
12181;SDS011;6154;51.550;12.138;2023-08-06T08:10:58;1.12;;;0.70;;
12181;SDS011;6154;51.550;12.138;2023-08-06T08:13:27;1.08;;;0.90;;
12181;SDS011;6154;51.550;12.138;2023-08-06T08:15:56;1.20;;;0.73;;
12181;SDS011;6154;51.550;12.138;2023-08-06T08:18:26;0.82;;;0.68;;
12181;SDS011;6154;51.550;12.138;2023-08-06T08:20:54;0.88;;;0.70;;
12181;SDS011;6154;51.550;12.138;2023-08-06T08:23:22;1.90;;;0.75;;
12181;SDS011;6154;51.550;12.138;2023-08-06T08:25:50;1.83;;;0.88;;
12181;SDS011;6154;51.550;12.138;2023-08-06T08:28:20;0.75;;;0.75;;
12181;SDS011;6154;51.550;12.138;2023-08-06T08:30:49;0.80;;;0.80;;
12181;SDS011;6154;51.550;12.138;2023-08-06T08:33:17;1.02;;;0.68;;
12181;SDS011;6154;51.550;12.138;2023-08-06T08:35:45;0.60;;;0.60;;
12181;SDS011;6154;51.550;12.138;2023-08-06T08:38:13;0.60;;;0.60;;
12181;SDS011;6154;51.550;12.138;2023-08-06T08:40:44;0.62;;;0.60;;
12181;SDS011;6154;51.550;12.138;2023-08-06T08:43:14;0.50;;;0.50;;
12181;SDS011;6154;51.550;12.138;2023-08-06T08:45:44;1.12;;;0.60;;
12181;SDS011;6154;51.550;12.138;2023-08-06T08:48:17;0.75;;;0.65;;
12181;SDS011;6154;51.550;12.138;2023-08-06T08:50:49;0.52;;;0.52;;
12181;SDS011;6154;51.550;12.138;2023-08-06T08:53:18;0.55;;;0.55;;
12181;SDS011;6154;51.550;12.138;2023-08-06T08:55:47;2.85;;;0.50;;
12181;SDS011;6154;51.550;12.138;2023-08-06T08:58:17;0.80;;;0.70;;
12181;SDS011;6154;51.550;12.138;2023-08-06T09:00:46;0.60;;;0.60;;
12181;SDS011;6154;51.550;12.138;2023-08-06T09:03:15;0.98;;;0.50;;
12181;SDS011;6154;51.550;12.138;2023-08-06T09:05:45;0.50;;;0.50;;
12181;SDS011;6154;51.550;12.138;2023-08-06T09:08:17;1.67;;;0.70;;
12181;SDS011;6154;51.550;12.138;2023-08-06T09:10:47;0.70;;;0.70;;
12181;SDS011;6154;51.550;12.138;2023-08-06T09:13:16;0.70;;;0.60;;
12181;SDS011;6154;51.550;12.138;2023-08-06T09:15:47;0.70;;;0.70;;
12181;SDS011;6154;51.550;12.138;2023-08-06T09:18:24;0.45;;;0.45;;
12181;SDS011;6154;51.550;12.138;2023-08-06T09:20:53;1.42;;;0.57;;
12181;SDS011;6154;51.550;12.138;2023-08-06T09:23:25;0.80;;;0.80;;
12181;SDS011;6154;51.550;12.138;2023-08-06T09:25:56;0.50;;;0.50;;
12181;SDS011;6154;51.550;12.138;2023-08-06T09:28:24;0.37;;;0.37;;
12181;SDS011;6154;51.550;12.138;2023-08-06T09:31:05;2.78;;;0.88;;
12181;SDS011;6154;51.550;12.138;2023-08-06T09:33:33;0.60;;;0.52;;
12181;SDS011;6154;51.550;12.138;2023-08-06T09:36:07;0.70;;;0.60;;
12181;SDS011;6154;51.550;12.138;2023-08-06T09:38:40;1.15;;;0.90;;
12181;SDS011;6154;51.550;12.138;2023-08-06T09:41:08;1.02;;;0.70;;
12181;SDS011;6154;51.550;12.138;2023-08-06T09:43:40;0.70;;;0.70;;
12181;SDS011;6154;51.550;12.138;2023-08-06T09:46:14;0.60;;;0.60;;
12181;SDS011;6154;51.550;12.138;2023-08-06T09:48:44;1.77;;;0.82;;
12181;SDS011;6154;51.550;12.138;2023-08-06T09:51:13;0.98;;;0.70;;
12181;SDS011;6154;51.550;12.138;2023-08-06T09:53:42;0.52;;;0.52;;
12181;SDS011;6154;51.550;12.138;2023-08-06T09:56:11;1.27;;;0.60;;
12181;SDS011;6154;51.550;12.138;2023-08-06T09:58:43;0.47;;;0.47;;
12181;SDS011;6154;51.550;12.138;2023-08-06T10:01:14;0.55;;;0.55;;
12181;SDS011;6154;51.550;12.138;2023-08-06T10:03:44;0.40;;;0.40;;
12181;SDS011;6154;51.550;12.138;2023-08-06T10:06:13;2.05;;;0.57;;
12181;SDS011;6154;51.550;12.138;2023-08-06T10:08:42;0.60;;;0.60;;
12181;SDS011;6154;51.550;12.138;2023-08-06T10:11:10;0.60;;;0.60;;
12181;SDS011;6154;51.550;12.138;2023-08-06T10:13:39;0.60;;;0.60;;
12181;SDS011;6154;51.550;12.138;2023-08-06T10:16:08;0.95;;;0.62;;
12181;SDS011;6154;51.550;12.138;2023-08-06T10:18:38;0.60;;;0.60;;
12181;SDS011;6154;51.550;12.138;2023-08-06T10:21:07;0.95;;;0.60;;
12181;SDS011;6154;51.550;12.138;2023-08-06T10:23:36;0.43;;;0.43;;
12181;SDS011;6154;51.550;12.138;2023-08-06T10:26:08;1.40;;;0.52;;
12181;SDS011;6154;51.550;12.138;2023-08-06T10:28:37;0.55;;;0.55;;
12181;SDS011;6154;51.550;12.138;2023-08-06T10:31:06;0.52;;;0.40;;
12181;SDS011;6154;51.550;12.138;2023-08-06T10:33:43;0.60;;;0.60;;
12181;SDS011;6154;51.550;12.138;2023-08-06T10:36:12;0.57;;;0.57;;
12181;SDS011;6154;51.550;12.138;2023-08-06T10:38:44;0.50;;;0.40;;
12181;SDS011;6154;51.550;12.138;2023-08-06T10:41:18;1.58;;;0.82;;
12181;SDS011;6154;51.550;12.138;2023-08-06T10:43:50;0.65;;;0.55;;
12181;SDS011;6154;51.550;12.138;2023-08-06T10:46:22;0.60;;;0.55;;
12181;SDS011;6154;51.550;12.138;2023-08-06T10:48:53;0.68;;;0.52;;
12181;SDS011;6154;51.550;12.138;2023-08-06T10:51:21;0.82;;;0.70;;
12181;SDS011;6154;51.550;12.138;2023-08-06T10:53:50;0.65;;;0.50;;
12181;SDS011;6154;51.550;12.138;2023-08-06T10:56:18;0.82;;;0.45;;
12181;SDS011;6154;51.550;12.138;2023-08-06T10:58:49;0.57;;;0.57;;
12181;SDS011;6154;51.550;12.138;2023-08-06T11:01:18;2.15;;;0.68;;
12181;SDS011;6154;51.550;12.138;2023-08-06T11:03:47;1.83;;;0.68;;
12181;SDS011;6154;51.550;12.138;2023-08-06T11:06:18;0.95;;;0.70;;
12181;SDS011;6154;51.550;12.138;2023-08-06T11:08:47;0.82;;;0.62;;
12181;SDS011;6154;51.550;12.138;2023-08-06T11:11:16;0.57;;;0.57;;
12181;SDS011;6154;51.550;12.138;2023-08-06T11:13:45;0.60;;;0.60;;
12181;SDS011;6154;51.550;12.138;2023-08-06T11:16:15;0.40;;;0.40;;
12181;SDS011;6154;51.550;12.138;2023-08-06T11:18:45;2.33;;;0.88;;
12181;SDS011;6154;51.550;12.138;2023-08-06T11:21:14;0.70;;;0.70;;
12181;SDS011;6154;51.550;12.138;2023-08-06T11:23:43;0.77;;;0.52;;
12181;SDS011;6154;51.550;12.138;2023-08-06T11:26:12;1.52;;;0.40;;
12181;SDS011;6154;51.550;12.138;2023-08-06T11:28:42;2.70;;;0.80;;
12181;SDS011;6154;51.550;12.138;2023-08-06T11:31:18;1.70;;;0.82;;
12181;SDS011;6154;51.550;12.138;2023-08-06T11:33:47;3.03;;;0.88;;
12181;SDS011;6154;51.550;12.138;2023-08-06T11:36:15;3.03;;;1.45;;
12181;SDS011;6154;51.550;12.138;2023-08-06T11:38:45;0.77;;;0.75;;
12181;SDS011;6154;51.550;12.138;2023-08-06T11:41:13;1.02;;;0.65;;
12181;SDS011;6154;51.550;12.138;2023-08-06T11:43:41;1.70;;;0.90;;
12181;SDS011;6154;51.550;12.138;2023-08-06T11:46:14;1.00;;;0.60;;
12181;SDS011;6154;51.550;12.138;2023-08-06T11:48:50;0.70;;;0.70;;
12181;SDS011;6154;51.550;12.138;2023-08-06T11:51:22;0.82;;;0.60;;
12181;SDS011;6154;51.550;12.138;2023-08-06T11:53:53;1.62;;;0.98;;
12181;SDS011;6154;51.550;12.138;2023-08-06T11:56:23;1.20;;;0.70;;
12181;SDS011;6154;51.550;12.138;2023-08-06T11:58:53;2.62;;;1.52;;
12181;SDS011;6154;51.550;12.138;2023-08-06T12:01:22;3.65;;;0.57;;
12181;SDS011;6154;51.550;12.138;2023-08-06T12:03:51;0.80;;;0.80;;
12181;SDS011;6154;51.550;12.138;2023-08-06T12:06:19;0.70;;;0.68;;
12181;SDS011;6154;51.550;12.138;2023-08-06T12:08:47;1.00;;;0.68;;
12181;SDS011;6154;51.550;12.138;2023-08-06T12:11:20;1.10;;;0.80;;
12181;SDS011;6154;51.550;12.138;2023-08-06T12:13:50;1.10;;;0.60;;
12181;SDS011;6154;51.550;12.138;2023-08-06T12:16:18;0.60;;;0.60;;
12181;SDS011;6154;51.550;12.138;2023-08-06T12:18:48;0.80;;;0.60;;
12181;SDS011;6154;51.550;12.138;2023-08-06T12:21:16;1.12;;;0.68;;
12181;SDS011;6154;51.550;12.138;2023-08-06T12:23:45;1.52;;;0.60;;
12181;SDS011;6154;51.550;12.138;2023-08-06T12:26:13;0.98;;;0.65;;
12181;SDS011;6154;51.550;12.138;2023-08-06T12:28:42;0.50;;;0.50;;
12181;SDS011;6154;51.550;12.138;2023-08-06T12:31:11;1.10;;;0.80;;
12181;SDS011;6154;51.550;12.138;2023-08-06T12:33:39;1.27;;;0.60;;
12181;SDS011;6154;51.550;12.138;2023-08-06T12:36:07;1.15;;;0.70;;
12181;SDS011;6154;51.550;12.138;2023-08-06T12:38:35;0.90;;;0.62;;
12181;SDS011;6154;51.550;12.138;2023-08-06T12:41:03;1.62;;;0.77;;
12181;SDS011;6154;51.550;12.138;2023-08-06T12:43:32;1.87;;;0.82;;
12181;SDS011;6154;51.550;12.138;2023-08-06T12:46:01;0.98;;;0.70;;
12181;SDS011;6154;51.550;12.138;2023-08-06T12:48:30;0.60;;;0.60;;
12181;SDS011;6154;51.550;12.138;2023-08-06T12:50:58;0.70;;;0.65;;
12181;SDS011;6154;51.550;12.138;2023-08-06T12:53:26;0.80;;;0.80;;
12181;SDS011;6154;51.550;12.138;2023-08-06T12:55:54;2.83;;;0.68;;
12181;SDS011;6154;51.550;12.138;2023-08-06T12:58:22;0.80;;;0.73;;
12181;SDS011;6154;51.550;12.138;2023-08-06T13:00:51;0.52;;;0.43;;
12181;SDS011;6154;51.550;12.138;2023-08-06T13:03:20;1.58;;;0.60;;
12181;SDS011;6154;51.550;12.138;2023-08-06T13:05:48;0.60;;;0.60;;
12181;SDS011;6154;51.550;12.138;2023-08-06T13:08:17;0.90;;;0.77;;
12181;SDS011;6154;51.550;12.138;2023-08-06T13:10:45;0.95;;;0.60;;
12181;SDS011;6154;51.550;12.138;2023-08-06T13:13:13;0.45;;;0.45;;
12181;SDS011;6154;51.550;12.138;2023-08-06T13:15:41;0.75;;;0.60;;
12181;SDS011;6154;51.550;12.138;2023-08-06T13:18:09;1.25;;;0.70;;
12181;SDS011;6154;51.550;12.138;2023-08-06T13:20:39;0.68;;;0.60;;
12181;SDS011;6154;51.550;12.138;2023-08-06T13:23:08;0.60;;;0.60;;
12181;SDS011;6154;51.550;12.138;2023-08-06T13:25:36;1.17;;;0.60;;
12181;SDS011;6154;51.550;12.138;2023-08-06T13:28:05;0.90;;;0.73;;
12181;SDS011;6154;51.550;12.138;2023-08-06T13:30:34;4.50;;;0.70;;
12181;SDS011;6154;51.550;12.138;2023-08-06T13:33:08;0.90;;;0.65;;
12181;SDS011;6154;51.550;12.138;2023-08-06T13:35:38;0.68;;;0.40;;
12181;SDS011;6154;51.550;12.138;2023-08-06T13:38:06;0.80;;;0.55;;
12181;SDS011;6154;51.550;12.138;2023-08-06T13:40:34;0.55;;;0.52;;
12181;SDS011;6154;51.550;12.138;2023-08-06T13:43:03;0.70;;;0.70;;
12181;SDS011;6154;51.550;12.138;2023-08-06T13:45:31;0.70;;;0.60;;
12181;SDS011;6154;51.550;12.138;2023-08-06T13:48:01;1.35;;;0.80;;
12181;SDS011;6154;51.550;12.138;2023-08-06T13:50:30;2.15;;;0.57;;
12181;SDS011;6154;51.550;12.138;2023-08-06T13:53:00;0.90;;;0.68;;
12181;SDS011;6154;51.550;12.138;2023-08-06T13:55:28;0.50;;;0.50;;
12181;SDS011;6154;51.550;12.138;2023-08-06T13:57:57;1.35;;;0.68;;
12181;SDS011;6154;51.550;12.138;2023-08-06T14:00:25;0.52;;;0.52;;
12181;SDS011;6154;51.550;12.138;2023-08-06T14:02:53;3.53;;;0.50;;
12181;SDS011;6154;51.550;12.138;2023-08-06T14:05:21;1.87;;;0.65;;
12181;SDS011;6154;51.550;12.138;2023-08-06T14:07:50;1.33;;;0.70;;
12181;SDS011;6154;51.550;12.138;2023-08-06T14:10:19;0.40;;;0.40;;
12181;SDS011;6154;51.550;12.138;2023-08-06T14:12:48;1.00;;;0.55;;
12181;SDS011;6154;51.550;12.138;2023-08-06T14:15:35;2.00;;;0.65;;
12181;SDS011;6154;51.550;12.138;2023-08-06T14:18:06;1.40;;;0.60;;
12181;SDS011;6154;51.550;12.138;2023-08-06T14:20:35;0.62;;;0.50;;
12181;SDS011;6154;51.550;12.138;2023-08-06T14:23:03;0.20;;;0.20;;
12181;SDS011;6154;51.550;12.138;2023-08-06T14:25:32;0.40;;;0.37;;
12181;SDS011;6154;51.550;12.138;2023-08-06T14:28:01;0.68;;;0.60;;
12181;SDS011;6154;51.550;12.138;2023-08-06T14:30:29;0.60;;;0.60;;
12181;SDS011;6154;51.550;12.138;2023-08-06T14:32:57;0.77;;;0.77;;
12181;SDS011;6154;51.550;12.138;2023-08-06T14:35:42;0.50;;;0.50;;
12181;SDS011;6154;51.550;12.138;2023-08-06T14:38:11;0.65;;;0.65;;
12181;SDS011;6154;51.550;12.138;2023-08-06T14:40:40;0.70;;;0.70;;
12181;SDS011;6154;51.550;12.138;2023-08-06T14:43:08;1.25;;;0.68;;
12181;SDS011;6154;51.550;12.138;2023-08-06T14:45:40;0.95;;;0.90;;
12181;SDS011;6154;51.550;12.138;2023-08-06T14:48:09;1.15;;;0.70;;
12181;SDS011;6154;51.550;12.138;2023-08-06T14:50:37;1.65;;;1.10;;
12181;SDS011;6154;51.550;12.138;2023-08-06T14:53:06;1.65;;;1.30;;
12181;SDS011;6154;51.550;12.138;2023-08-06T14:55:35;2.28;;;1.30;;
12181;SDS011;6154;51.550;12.138;2023-08-06T14:58:04;3.05;;;1.33;;
12181;SDS011;6154;51.550;12.138;2023-08-06T15:00:32;1.30;;;1.20;;